Time;durP1;ratioP1;P1;durP2;ratioP2;P2;SDS_P1;SDS_P2;PMS_P1;PMS_P2;Temp;Humidity;BMP_temperature;BMP_pressure;BME280_temperature;BME280_humidity;BME280_pressure;Samples;Min_cycle;Max_cycle;Signal;HPM_P1;HPM_P2
2022/08/18 00:01:39;;;;;;;;;16.75;15.25;;;;;;;;5161216;27;45399;-63
2022/08/18 00:04:04;;;;;;;;;16.50;14.50;;;;;;;;5160946;27;45400;-63
2022/08/18 00:06:30;;;;;;;;;14.75;14.75;;;;;;;;5142156;27;45401;-63
2022/08/18 00:08:59;;;;;;;;;14.75;14.75;;;;;;;;5160855;27;45384;-63
2022/08/18 00:11:25;;;;;;;;;13.75;11.75;;;;;;;;5160966;27;45300;-63
2022/08/18 00:13:50;;;;;;;;;15.50;14.75;;;;;;;;5160780;27;45422;-63
2022/08/18 00:16:15;;;;;;;;;13.50;13.25;;;;;;;;5160615;27;45585;-64
2022/08/18 00:18:41;;;;;;;;;13.50;12.50;;;;;;;;5160716;27;45328;-64
2022/08/18 00:21:06;;;;;;;;;10.50;10.50;;;;;;;;5160761;27;45584;-64
2022/08/18 00:23:31;;;;;;;;;13.50;13.50;;;;;;;;5160807;27;45292;-64
2022/08/18 00:25:58;;;;;;;;;11.75;10.75;;;;;;;;5141705;27;47467;-65
2022/08/18 00:28:23;;;;;;;;;10.50;9.25;;;;;;;;5141507;27;45412;-64
2022/08/18 00:30:48;;;;;;;;;13.00;11.75;;;;;;;;5160521;27;45203;-64
2022/08/18 00:33:13;;;;;;;;;11.75;11.75;;;;;;;;5160883;27;45198;-64
2022/08/18 00:35:39;;;;;;;;;10.00;10.00;;;;;;;;5159922;27;46490;-64
2022/08/18 00:38:06;;;;;;;;;15.00;13.00;;;;;;;;5159218;27;45301;-64
2022/08/18 00:40:36;;;;;;;;;13.25;11.75;;;;;;;;5140468;27;45393;-65
2022/08/18 00:43:03;;;;;;;;;10.75;10.75;;;;;;;;5159264;27;45893;-64
2022/08/18 00:45:31;;;;;;;;;10.25;9.25;;;;;;;;5158829;27;45864;-64
2022/08/18 00:47:57;;;;;;;;;13.50;11.00;;;;;;;;5156787;27;45704;-64
2022/08/18 00:50:22;;;;;;;;;14.25;13.25;;;;;;;;5157239;27;45439;-64
2022/08/18 00:53:14;;;;;;;;;15.25;12.75;;;;;;;;5138988;27;45434;-64
2022/08/18 00:55:40;;;;;;;;;14.50;13.25;;;;;;;;5158779;27;46865;-64
2022/08/18 00:58:10;;;;;;;;;13.75;13.00;;;;;;;;5157948;27;45388;-64
2022/08/18 01:00:36;;;;;;;;;13.25;10.25;;;;;;;;5140151;27;45429;-63
2022/08/18 01:03:03;;;;;;;;;13.25;12.25;;;;;;;;5139866;27;45422;-64
2022/08/18 01:05:32;;;;;;;;;13.00;12.50;;;;;;;;5158396;27;46572;-64
2022/08/18 01:07:58;;;;;;;;;13.75;13.75;;;;;;;;5158455;27;45284;-64
2022/08/18 01:10:23;;;;;;;;;15.50;15.50;;;;;;;;5158392;27;45441;-64
2022/08/18 01:12:51;;;;;;;;;16.00;16.00;;;;;;;;5158801;27;45322;-64
2022/08/18 01:15:18;;;;;;;;;14.75;14.75;;;;;;;;5158283;27;45824;-64
2022/08/18 01:23:38;;;;;;;;;11.75;11.75;;;;;;;;5073252;28;45346;-64
2022/08/18 01:26:05;;;;;;;;;14.25;14.25;;;;;;;;5056216;28;46472;-64
2022/08/18 01:28:32;;;;;;;;;11.75;10.25;;;;;;;;5072894;27;45556;-64
2022/08/18 01:30:58;;;;;;;;;15.25;15.25;;;;;;;;5073227;28;45467;-64
2022/08/18 01:33:31;;;;;;;;;8.75;8.75;;;;;;;;5073269;28;45370;-63
2022/08/18 01:38:03;;;;;;;;;16.50;15.00;;;;;;;;5093243;27;45335;-64
2022/08/18 01:40:28;;;;;;;;;10.50;10.50;;;;;;;;5083922;27;45953;-64
2022/08/18 01:42:55;;;;;;;;;10.75;10.75;;;;;;;;5070367;28;45396;-63
2022/08/18 01:45:20;;;;;;;;;12.50;10.25;;;;;;;;5070362;28;45839;-63
2022/08/18 01:47:45;;;;;;;;;12.50;12.50;;;;;;;;5072238;28;46688;-62
2022/08/18 01:50:12;;;;;;;;;11.75;11.75;;;;;;;;5072109;28;45424;-63
2022/08/18 01:52:38;;;;;;;;;12.00;12.00;;;;;;;;5072401;27;45432;-63
2022/08/18 01:55:03;;;;;;;;;11.50;11.50;;;;;;;;5072533;27;45411;-63
2022/08/18 01:57:29;;;;;;;;;14.00;13.50;;;;;;;;5071093;28;47935;-63
2022/08/18 01:59:54;;;;;;;;;12.00;12.00;;;;;;;;5072944;27;45328;-64
2022/08/18 02:02:24;;;;;;;;;10.00;9.50;;;;;;;;5071502;28;45430;-64
2022/08/18 02:04:52;;;;;;;;;12.25;11.25;;;;;;;;5072551;27;45377;-63
2022/08/18 02:07:17;;;;;;;;;10.25;9.25;;;;;;;;5072313;27;45386;-63
2022/08/18 02:09:43;;;;;;;;;12.00;12.00;;;;;;;;5072441;28;45455;-63
2022/08/18 02:12:08;;;;;;;;;13.50;12.50;;;;;;;;5072567;27;45251;-64
2022/08/18 02:14:34;;;;;;;;;12.25;11.25;;;;;;;;5072507;27;45344;-63
2022/08/18 02:17:00;;;;;;;;;13.75;12.25;;;;;;;;5072014;27;45548;-62
2022/08/18 02:19:25;;;;;;;;;10.00;10.00;;;;;;;;5070884;28;45425;-65
2022/08/18 02:21:51;;;;;;;;;10.50;10.50;;;;;;;;5072370;27;45405;-64
2022/08/18 02:24:16;;;;;;;;;13.00;12.25;;;;;;;;5072135;28;45357;-64
2022/08/18 02:26:42;;;;;;;;;11.25;8.25;;;;;;;;5077102;27;45335;-63
2022/08/18 02:29:08;;;;;;;;;11.50;11.50;;;;;;;;5092550;27;45262;-63
2022/08/18 02:31:33;;;;;;;;;11.33;10.67;;;;;;;;5092537;27;45353;-63
2022/08/18 02:33:58;;;;;;;;;12.75;11.00;;;;;;;;5092509;27;45327;-63
2022/08/18 02:36:23;;;;;;;;;11.00;9.50;;;;;;;;5099013;27;46442;-63
2022/08/18 02:38:49;;;;;;;;;12.25;11.00;;;;;;;;5099889;27;45503;-62
2022/08/18 02:41:14;;;;;;;;;9.00;9.00;;;;;;;;5091887;27;45416;-63
2022/08/18 02:43:40;;;;;;;;;12.50;11.50;;;;;;;;5091299;27;45356;-63
2022/08/18 02:46:06;;;;;;;;;13.75;11.00;;;;;;;;5091714;27;45433;-63
2022/08/18 02:48:35;;;;;;;;;12.00;10.00;;;;;;;;5083089;27;45293;-63
2022/08/18 02:51:01;;;;;;;;;10.25;10.25;;;;;;;;5078683;28;45387;-63
2022/08/18 02:53:27;;;;;;;;;7.50;7.50;;;;;;;;5078581;28;45432;-63
2022/08/18 02:55:52;;;;;;;;;11.25;10.00;;;;;;;;5078116;28;46530;-63
2022/08/18 02:58:19;;;;;;;;;10.25;9.50;;;;;;;;5077246;27;45393;-64
2022/08/18 03:00:45;;;;;;;;;13.50;11.00;;;;;;;;5078710;27;45473;-63
2022/08/18 03:03:12;;;;;;;;;13.50;12.50;;;;;;;;5077189;28;45526;-63
2022/08/18 03:05:37;;;;;;;;;12.00;10.00;;;;;;;;5078100;27;46617;-64
2022/08/18 03:08:02;;;;;;;;;13.25;10.50;;;;;;;;5078301;28;45341;-63
2022/08/18 03:10:28;;;;;;;;;10.00;10.00;;;;;;;;5078445;28;45283;-63
2022/08/18 03:12:53;;;;;;;;;12.50;12.00;;;;;;;;5078421;27;45226;-63
2022/08/18 03:15:18;;;;;;;;;10.75;10.75;;;;;;;;5078189;28;45410;-64
2022/08/18 03:17:43;;;;;;;;;9.25;9.25;;;;;;;;5076630;28;45425;-64
2022/08/18 03:20:09;;;;;;;;;12.75;11.00;;;;;;;;5078194;28;45332;-63
2022/08/18 03:22:35;;;;;;;;;10.50;9.25;;;;;;;;5078186;28;45202;-63
2022/08/18 03:25:01;;;;;;;;;9.00;9.00;;;;;;;;5077920;28;46505;-64
2022/08/18 03:27:26;;;;;;;;;12.75;9.50;;;;;;;;5088931;27;45330;-64
2022/08/18 03:29:52;;;;;;;;;11.75;10.75;;;;;;;;5097156;27;45588;-64
2022/08/18 03:32:17;;;;;;;;;11.75;9.75;;;;;;;;5098550;27;45288;-63
2022/08/18 03:34:43;;;;;;;;;9.25;9.25;;;;;;;;5098260;27;45522;-64
2022/08/18 03:37:08;;;;;;;;;11.75;10.75;;;;;;;;5096674;27;46060;-64
2022/08/18 03:39:34;;;;;;;;;9.00;8.25;;;;;;;;5098489;27;45375;-64
2022/08/18 03:41:59;;;;;;;;;9.50;8.00;;;;;;;;5098265;27;45360;-63
2022/08/18 03:44:25;;;;;;;;;9.50;8.00;;;;;;;;5098011;27;45468;-64
2022/08/18 03:46:51;;;;;;;;;7.00;7.00;;;;;;;;5096814;27;45616;-64
2022/08/18 03:49:17;;;;;;;;;12.25;11.50;;;;;;;;5097939;27;45274;-63
2022/08/18 03:51:45;;;;;;;;;7.50;7.50;;;;;;;;5098255;27;45388;-62
2022/08/18 03:54:12;;;;;;;;;11.50;9.00;;;;;;;;5097700;27;45726;-63
2022/08/18 03:56:38;;;;;;;;;11.00;10.00;;;;;;;;5097437;27;45451;-62
2022/08/18 03:59:09;;;;;;;;;8.75;8.75;;;;;;;;5097608;27;45404;-63
2022/08/18 04:01:39;;;;;;;;;9.00;9.00;;;;;;;;5095786;27;45217;-62
2022/08/18 04:04:06;;;;;;;;;12.00;9.50;;;;;;;;5097651;27;46172;-63
2022/08/18 04:06:37;;;;;;;;;9.25;8.50;;;;;;;;5097734;27;45282;-63
2022/08/18 04:09:04;;;;;;;;;8.25;8.25;;;;;;;;5096574;27;45500;-63
2022/08/18 04:11:30;;;;;;;;;8.25;8.25;;;;;;;;5097835;27;45280;-63
2022/08/18 04:13:58;;;;;;;;;10.00;10.00;;;;;;;;5097475;27;46319;-63
2022/08/18 04:16:24;;;;;;;;;10.00;10.00;;;;;;;;5097530;27;45415;-63
2022/08/18 04:18:49;;;;;;;;;10.25;10.25;;;;;;;;5096359;27;45248;-63
2022/08/18 04:21:15;;;;;;;;;9.25;7.25;;;;;;;;5096299;27;45440;-63
2022/08/18 04:23:40;;;;;;;;;8.75;8.00;;;;;;;;5097454;27;46456;-63
2022/08/18 04:26:07;;;;;;;;;10.00;10.00;;;;;;;;5097395;27;45204;-63
2022/08/18 04:28:32;;;;;;;;;13.50;11.50;;;;;;;;5097516;27;45375;-64
2022/08/18 04:30:58;;;;;;;;;10.75;10.75;;;;;;;;5097419;27;45358;-63
2022/08/18 04:33:26;;;;;;;;;11.50;11.50;;;;;;;;5097329;27;45741;-63
2022/08/18 04:35:52;;;;;;;;;12.50;10.75;;;;;;;;5096992;27;45390;-64
2022/08/18 04:38:18;;;;;;;;;10.25;10.00;;;;;;;;5097166;27;45346;-63
2022/08/18 04:40:43;;;;;;;;;11.75;9.75;;;;;;;;5097451;27;45276;-63
2022/08/18 04:43:13;;;;;;;;;11.25;10.75;;;;;;;;5097215;27;45619;-64
2022/08/18 04:45:39;;;;;;;;;9.50;8.50;;;;;;;;5097312;27;45348;-64
2022/08/18 04:48:05;;;;;;;;;17.75;14.00;;;;;;;;5097086;27;45358;-64
2022/08/18 04:50:30;;;;;;;;;7.00;7.00;;;;;;;;5097205;27;45345;-64
2022/08/18 04:55:44;;;;;;;;;10.75;9.75;;;;;;;;5097093;27;45382;-64
2022/08/18 04:58:10;;;;;;;;;11.75;10.50;;;;;;;;5096890;27;45150;-64
2022/08/18 05:00:35;;;;;;;;;11.25;11.25;;;;;;;;5096751;27;45320;-64
2022/08/18 05:03:00;;;;;;;;;13.25;13.00;;;;;;;;5096785;27;46738;-64
2022/08/18 05:05:26;;;;;;;;;13.00;12.50;;;;;;;;5096773;27;45468;-64
2022/08/18 05:07:51;;;;;;;;;7.75;7.75;;;;;;;;5097188;27;45316;-64
2022/08/18 05:10:16;;;;;;;;;12.25;11.75;;;;;;;;5096837;27;45274;-64
2022/08/18 05:12:42;;;;;;;;;12.50;11.50;;;;;;;;5095683;27;45515;-64
2022/08/18 05:15:07;;;;;;;;;11.25;11.25;;;;;;;;5096775;27;45364;-64
2022/08/18 05:17:35;;;;;;;;;12.00;10.25;;;;;;;;5096609;27;45302;-64
2022/08/18 05:20:03;;;;;;;;;9.25;9.25;;;;;;;;5096910;27;45273;-64
2022/08/18 05:22:28;;;;;;;;;10.50;10.50;;;;;;;;5096595;27;46478;-64
2022/08/18 05:24:53;;;;;;;;;12.50;11.75;;;;;;;;5096563;27;45332;-65
2022/08/18 05:27:20;;;;;;;;;12.75;12.75;;;;;;;;5096678;27;45467;-64
2022/08/18 05:29:45;;;;;;;;;11.00;11.00;;;;;;;;5093350;27;45372;-64
2022/08/18 05:32:10;;;;;;;;;9.75;9.75;;;;;;;;5096439;27;46519;-64
2022/08/18 05:34:35;;;;;;;;;10.25;10.25;;;;;;;;5096658;27;45433;-65
2022/08/18 05:37:13;;;;;;;;;10.25;10.25;;;;;;;;5096451;27;45343;-64
2022/08/18 05:39:39;;;;;;;;;11.75;11.75;;;;;;;;5096769;27;45350;-64
2022/08/18 05:42:06;;;;;;;;;13.00;12.75;;;;;;;;5094830;27;46445;-64
2022/08/18 05:44:38;;;;;;;;;10.25;9.75;;;;;;;;5096508;27;45364;-64
2022/08/18 05:47:05;;;;;;;;;11.75;11.75;;;;;;;;5087457;27;45333;-64
2022/08/18 05:49:32;;;;;;;;;14.50;14.00;;;;;;;;5075820;28;45259;-65
2022/08/18 05:51:59;;;;;;;;;9.25;9.25;;;;;;;;5075622;27;46692;-64
2022/08/18 05:57:18;;;;;;;;;11.00;11.00;;;;;;;;5075801;28;45258;-65
2022/08/18 05:59:44;;;;;;;;;12.00;12.00;;;;;;;;5075891;28;45408;-64
2022/08/18 06:02:28;;;;;;;;;13.75;13.25;;;;;;;;5075002;28;46361;-64
2022/08/18 06:04:59;;;;;;;;;15.25;14.25;;;;;;;;5075562;28;45470;-64
2022/08/18 06:07:34;;;;;;;;;18.25;16.00;;;;;;;;5075773;27;45330;-64
2022/08/18 06:09:59;;;;;;;;;14.75;13.50;;;;;;;;5075796;28;45367;-65
2022/08/18 06:12:27;;;;;;;;;15.50;14.25;;;;;;;;5075540;27;45982;-64
2022/08/18 06:15:00;;;;;;;;;12.75;11.50;;;;;;;;5074470;27;45425;-64
2022/08/18 06:17:25;;;;;;;;;18.50;18.00;;;;;;;;5075593;28;45369;-63
2022/08/18 06:20:02;;;;;;;;;16.25;16.25;;;;;;;;5075761;28;45348;-64
2022/08/18 06:22:32;;;;;;;;;18.25;17.00;;;;;;;;5074113;28;48936;-63
2022/08/18 06:25:07;;;;;;;;;20.50;18.75;;;;;;;;5079066;28;45518;-63
2022/08/18 06:27:54;;;;;;;;;16.00;16.00;;;;;;;;5091122;27;45321;-63
2022/08/18 06:30:19;;;;;;;;;22.75;17.25;;;;;;;;5099330;27;45229;-63
2022/08/18 06:33:04;;;;;;;;;18.50;16.75;;;;;;;;5097809;27;46447;-63
2022/08/18 06:35:43;;;;;;;;;15.00;15.00;;;;;;;;5099307;27;45428;-64
2022/08/18 06:41:01;;;;;;;;;20.00;20.00;;;;;;;;5099135;27;45390;-65
2022/08/18 06:43:28;;;;;;;;;17.00;14.75;;;;;;;;5098946;27;46886;-65
2022/08/18 06:45:53;;;;;;;;;23.75;20.00;;;;;;;;5099082;27;45319;-65
2022/08/18 06:48:29;;;;;;;;;22.00;21.50;;;;;;;;5097801;27;45341;-64
2022/08/18 06:50:59;;;;;;;;;27.50;22.50;;;;;;;;5099114;27;45363;-64
2022/08/18 06:53:44;;;;;;;;;21.50;20.25;;;;;;;;5098834;27;45762;-64
2022/08/18 06:56:20;;;;;;;;;23.75;22.75;;;;;;;;5098690;27;45356;-64
2022/08/18 06:58:45;;;;;;;;;21.25;18.50;;;;;;;;5097728;27;45243;-64
2022/08/18 07:01:10;;;;;;;;;25.50;23.50;;;;;;;;5098859;27;45422;-64
2022/08/18 07:03:35;;;;;;;;;24.00;24.00;;;;;;;;5098886;27;46454;-64
2022/08/18 07:06:03;;;;;;;;;24.25;22.50;;;;;;;;5099112;27;45452;-64
2022/08/18 07:08:30;;;;;;;;;27.00;27.00;;;;;;;;5099049;27;45237;-64
2022/08/18 07:11:09;;;;;;;;;23.50;22.75;;;;;;;;5080354;27;45340;-64
2022/08/18 07:13:36;;;;;;;;;21.50;21.50;;;;;;;;5098561;27;46153;-64
2022/08/18 07:16:25;;;;;;;;;30.50;27.50;;;;;;;;5098502;27;45460;-64
2022/08/18 07:18:50;;;;;;;;;26.50;26.50;;;;;;;;5086186;27;45320;-64
2022/08/18 07:21:23;;;;;;;;;30.00;28.25;;;;;;;;5098791;27;45323;-64
2022/08/18 07:23:57;;;;;;;;;26.50;26.25;;;;;;;;5098585;27;46292;-64
2022/08/18 07:26:23;;;;;;;;;28.25;28.25;;;;;;;;5098379;27;45490;-64
2022/08/18 07:28:49;;;;;;;;;32.50;30.50;;;;;;;;5098459;27;45414;-64
2022/08/18 07:31:23;;;;;;;;;28.50;25.50;;;;;;;;5098542;27;45391;-64
2022/08/18 07:33:55;;;;;;;;;32.00;31.75;;;;;;;;5098191;27;46631;-64
2022/08/18 07:36:23;;;;;;;;;29.50;28.25;;;;;;;;5098102;27;45411;-66
2022/08/18 07:38:52;;;;;;;;;33.25;29.50;;;;;;;;5096879;27;45364;-65
2022/08/18 07:41:19;;;;;;;;;33.00;29.75;;;;;;;;5098244;27;45345;-64
2022/08/18 07:43:50;;;;;;;;;23.50;23.25;;;;;;;;5098036;27;45730;-64
2022/08/18 07:46:20;;;;;;;;;32.00;30.75;;;;;;;;5098183;27;45438;-64
2022/08/18 07:48:45;;;;;;;;;33.75;30.50;;;;;;;;5098239;27;45302;-64
2022/08/18 07:51:17;;;;;;;;;28.25;26.25;;;;;;;;5098108;27;45277;-64
2022/08/18 07:53:42;;;;;;;;;30.00;30.00;;;;;;;;5097917;27;46643;-64
2022/08/18 07:56:31;;;;;;;;;32.60;30.00;;;;;;;;5096594;27;45438;-64
2022/08/18 07:59:01;;;;;;;;;29.75;29.00;;;;;;;;5089884;27;45321;-64
2022/08/18 08:01:39;;;;;;;;;31.50;28.75;;;;;;;;5097956;27;45308;-64
2022/08/18 08:04:11;;;;;;;;;33.25;29.25;;;;;;;;5097759;27;45865;-64
2022/08/18 08:06:37;;;;;;;;;34.50;31.25;;;;;;;;5097622;27;45515;-64
2022/08/18 08:09:11;;;;;;;;;29.00;29.00;;;;;;;;5096553;27;45234;-63
2022/08/18 08:11:45;;;;;;;;;33.50;31.25;;;;;;;;5097910;27;45329;-64
2022/08/18 08:14:19;;;;;;;;;34.25;32.00;;;;;;;;5096222;27;47513;-63
2022/08/18 08:16:47;;;;;;;;;33.00;31.75;;;;;;;;5097543;27;45293;-64
2022/08/18 08:19:18;;;;;;;;;34.25;29.50;;;;;;;;5096325;27;45377;-64
2022/08/18 08:21:47;;;;;;;;;31.75;29.75;;;;;;;;5096293;27;45407;-64
2022/08/18 08:24:18;;;;;;;;;37.75;33.25;;;;;;;;5097360;27;45888;-64
2022/08/18 08:26:53;;;;;;;;;37.50;32.50;;;;;;;;5097329;27;45285;-65
2022/08/18 08:29:28;;;;;;;;;32.00;30.50;;;;;;;;5096265;27;45344;-64
2022/08/18 08:32:04;;;;;;;;;31.75;30.25;;;;;;;;5097724;27;45308;-65
2022/08/18 08:34:34;;;;;;;;;38.25;34.00;;;;;;;;5097126;27;46531;-65
2022/08/18 08:37:01;;;;;;;;;32.75;30.50;;;;;;;;5095769;27;45806;-65
2022/08/18 08:39:34;;;;;;;;;33.25;32.00;;;;;;;;5097485;27;45455;-65
2022/08/18 08:42:22;;;;;;;;;33.00;31.50;;;;;;;;5097407;27;45306;-64
2022/08/18 08:44:50;;;;;;;;;28.50;26.75;;;;;;;;5096882;27;46000;-64
2022/08/18 08:47:15;;;;;;;;;28.00;27.25;;;;;;;;5095327;27;46042;-65
2022/08/18 08:49:43;;;;;;;;;32.00;28.00;;;;;;;;5097172;27;45331;-64
2022/08/18 08:52:14;;;;;;;;;33.00;30.00;;;;;;;;5097572;27;45366;-65
2022/08/18 08:54:43;;;;;;;;;38.50;33.00;;;;;;;;5096718;27;46470;-64
2022/08/18 08:57:10;;;;;;;;;34.00;31.75;;;;;;;;5095593;27;45352;-64
2022/08/18 08:59:36;;;;;;;;;25.25;25.25;;;;;;;;5097003;27;45449;-64
2022/08/18 09:02:04;;;;;;;;;33.00;32.00;;;;;;;;5095661;27;45380;-63
2022/08/18 09:04:35;;;;;;;;;27.25;27.25;;;;;;;;5096786;27;45835;-63
2022/08/18 09:07:13;;;;;;;;;31.50;31.50;;;;;;;;5095367;27;45415;-63
2022/08/18 09:09:38;;;;;;;;;34.00;32.00;;;;;;;;5096918;27;45327;-64
2022/08/18 09:12:15;;;;;;;;;30.25;27.75;;;;;;;;5097034;27;45313;-64
2022/08/18 09:14:47;;;;;;;;;29.50;28.25;;;;;;;;5096686;27;46450;-64
2022/08/18 09:17:32;;;;;;;;;24.50;22.75;;;;;;;;5096690;27;45269;-64
2022/08/18 09:20:16;;;;;;;;;23.00;22.00;;;;;;;;5096760;27;45275;-64
2022/08/18 09:22:41;;;;;;;;;31.50;30.25;;;;;;;;5096758;27;45328;-65
2022/08/18 09:25:25;;;;;;;;;26.25;24.00;;;;;;;;5096557;27;45757;-64
2022/08/18 09:28:05;;;;;;;;;27.00;27.00;;;;;;;;5096545;27;45371;-64
2022/08/18 09:30:42;;;;;;;;;25.50;24.25;;;;;;;;5096622;27;45353;-64
2022/08/18 09:33:21;;;;;;;;;22.00;21.75;;;;;;;;5095357;27;45378;-64
2022/08/18 09:36:06;;;;;;;;;25.00;24.00;;;;;;;;5096127;27;45724;-64
2022/08/18 09:41:30;;;;;;;;;23.25;22.75;;;;;;;;5096608;27;45320;-64
2022/08/18 09:44:11;;;;;;;;;23.25;23.25;;;;;;;;5095192;27;45554;-65
2022/08/18 09:46:42;;;;;;;;;23.50;22.50;;;;;;;;5094899;27;47569;-64
2022/08/18 09:49:25;;;;;;;;;24.50;24.25;;;;;;;;5096124;27;45363;-65
2022/08/18 09:51:51;;;;;;;;;22.75;22.75;;;;;;;;5095078;27;45364;-65
2022/08/18 09:54:17;;;;;;;;;20.25;19.00;;;;;;;;5095152;27;45326;-65
2022/08/18 09:56:48;;;;;;;;;19.25;19.00;;;;;;;;5096040;27;46429;-65
2022/08/18 09:59:32;;;;;;;;;17.25;17.25;;;;;;;;5098878;27;45293;-65
2022/08/18 10:01:57;;;;;;;;;19.50;19.50;;;;;;;;5100024;27;45440;-65
2022/08/18 10:04:47;;;;;;;;;20.25;20.00;;;;;;;;5099966;27;45411;-64
2022/08/18 10:07:29;;;;;;;;;21.75;21.75;;;;;;;;5099736;27;45451;-65
2022/08/18 10:10:06;;;;;;;;;25.00;23.50;;;;;;;;5099624;27;45360;-64
2022/08/18 10:12:40;;;;;;;;;22.75;21.75;;;;;;;;5099939;27;45285;-64
2022/08/18 10:15:11;;;;;;;;;23.75;23.75;;;;;;;;5099674;27;45350;-64
2022/08/18 10:17:36;;;;;;;;;24.00;24.00;;;;;;;;5098024;27;46617;-64
2022/08/18 10:20:20;;;;;;;;;19.25;18.25;;;;;;;;5099634;27;45320;-64
2022/08/18 10:22:46;;;;;;;;;18.75;18.75;;;;;;;;5099712;27;45355;-64
2022/08/18 10:25:13;;;;;;;;;17.75;17.75;;;;;;;;5099531;27;45271;-64
2022/08/18 10:27:43;;;;;;;;;17.00;14.75;;;;;;;;5099122;27;46498;-69
2022/08/18 10:30:31;;;;;;;;;19.50;18.75;;;;;;;;5099298;27;45318;-63
2022/08/18 10:32:57;;;;;;;;;15.50;15.50;;;;;;;;5099367;27;45396;-64
2022/08/18 10:35:34;;;;;;;;;16.50;14.00;;;;;;;;5099150;27;45347;-64
2022/08/18 10:38:21;;;;;;;;;15.00;15.00;;;;;;;;5098886;27;45973;-64
2022/08/18 10:41:08;;;;;;;;;14.25;14.00;;;;;;;;5099064;27;45264;-62
2022/08/18 10:43:37;;;;;;;;;16.25;14.00;;;;;;;;5099152;27;45281;-63
2022/08/18 10:46:02;;;;;;;;;15.75;15.75;;;;;;;;5099167;27;45375;-64
2022/08/18 10:48:29;;;;;;;;;18.50;18.50;;;;;;;;5098877;27;46511;-64
2022/08/18 10:51:06;;;;;;;;;13.50;13.50;;;;;;;;5099149;27;45242;-64
2022/08/18 10:53:44;;;;;;;;;13.75;13.75;;;;;;;;5099160;27;45354;-64
2022/08/18 10:56:11;;;;;;;;;15.25;14.25;;;;;;;;5097522;27;45448;-64
2022/08/18 10:58:36;;;;;;;;;12.00;12.00;;;;;;;;5098968;27;45686;-64
2022/08/18 11:01:20;;;;;;;;;15.25;14.00;;;;;;;;5099153;27;45379;-63
2022/08/18 11:04:06;;;;;;;;;11.50;11.50;;;;;;;;5097704;27;45371;-64
2022/08/18 11:06:40;;;;;;;;;12.75;12.00;;;;;;;;5098867;27;45316;-64
2022/08/18 11:09:06;;;;;;;;;11.75;11.75;;;;;;;;5096857;27;46800;-64
2022/08/18 11:11:36;;;;;;;;;11.25;11.25;;;;;;;;5098627;27;45374;-63
2022/08/18 11:14:22;;;;;;;;;11.25;11.25;;;;;;;;5097626;27;45361;-64
2022/08/18 11:16:56;;;;;;;;;15.25;11.25;;;;;;;;5098559;27;45328;-64
2022/08/18 11:19:22;;;;;;;;;5.25;5.25;;;;;;;;5097102;27;47628;-63
2022/08/18 11:21:49;;;;;;;;;10.00;10.00;;;;;;;;5098724;27;45379;-63
2022/08/18 11:24:23;;;;;;;;;11.50;11.00;;;;;;;;5098764;27;45322;-64
2022/08/18 11:26:55;;;;;;;;;10.00;10.00;;;;;;;;5098361;27;45377;-64
2022/08/18 11:29:21;;;;;;;;;12.75;12.75;;;;;;;;5098219;27;45961;-62
2022/08/18 11:31:48;;;;;;;;;12.50;11.25;;;;;;;;5098278;27;45355;-63
2022/08/18 11:34:20;;;;;;;;;13.50;12.75;;;;;;;;5098430;27;45332;-63
2022/08/18 11:36:56;;;;;;;;;12.50;12.50;;;;;;;;5098178;27;45277;-64
2022/08/18 11:39:21;;;;;;;;;12.50;12.50;;;;;;;;5096585;27;48880;-64
2022/08/18 11:41:48;;;;;;;;;12.50;12.00;;;;;;;;5098181;27;45293;-64
2022/08/18 11:44:16;;;;;;;;;12.25;11.25;;;;;;;;5098285;27;45371;-64
2022/08/18 11:46:41;;;;;;;;;10.50;10.50;;;;;;;;5096914;27;45377;-64
2022/08/18 11:49:15;;;;;;;;;9.75;9.75;;;;;;;;5097883;27;45776;-64
2022/08/18 11:51:52;;;;;;;;;11.50;11.00;;;;;;;;5098207;27;45295;-63
2022/08/18 11:54:21;;;;;;;;;12.50;11.25;;;;;;;;5098151;27;45396;-63
2022/08/18 11:56:46;;;;;;;;;9.25;7.75;;;;;;;;5098010;27;45379;-63
2022/08/18 11:59:23;;;;;;;;;12.50;10.75;;;;;;;;5097855;27;46168;-64
2022/08/18 12:01:50;;;;;;;;;11.00;9.75;;;;;;;;5097913;27;45344;-63
2022/08/18 12:04:19;;;;;;;;;12.25;11.00;;;;;;;;5097938;27;45392;-64
2022/08/18 12:07:00;;;;;;;;;9.50;9.50;;;;;;;;5097892;27;45319;-63
2022/08/18 12:09:32;;;;;;;;;9.25;9.25;;;;;;;;5097810;27;45933;-64
2022/08/18 12:12:03;;;;;;;;;8.00;8.00;;;;;;;;5097655;27;45358;-64
2022/08/18 12:14:32;;;;;;;;;9.00;9.00;;;;;;;;5096556;27;45320;-64
2022/08/18 12:16:57;;;;;;;;;14.00;11.75;;;;;;;;5097731;27;45517;-64
2022/08/18 12:19:23;;;;;;;;;10.00;10.00;;;;;;;;5097471;27;47783;-64
2022/08/18 12:21:55;;;;;;;;;12.50;10.75;;;;;;;;5096706;27;45254;-63
2022/08/18 12:24:22;;;;;;;;;11.00;11.00;;;;;;;;5097703;27;45375;-62
2022/08/18 12:26:48;;;;;;;;;10.25;10.25;;;;;;;;5075706;28;45523;-64
2022/08/18 12:29:16;;;;;;;;;8.50;8.50;;;;;;;;5076936;27;45817;-64
2022/08/18 12:31:41;;;;;;;;;8.50;8.25;;;;;;;;5077049;28;45302;-63
2022/08/18 12:34:06;;;;;;;;;10.50;10.50;;;;;;;;5077066;27;45338;-64
2022/08/18 12:36:32;;;;;;;;;9.25;9.00;;;;;;;;5077036;27;45309;-64
2022/08/18 12:38:57;;;;;;;;;10.50;10.50;;;;;;;;5075550;27;48430;-63
2022/08/18 12:41:23;;;;;;;;;11.00;10.00;;;;;;;;5076985;27;45249;-63
2022/08/18 12:43:48;;;;;;;;;10.50;10.50;;;;;;;;5077083;27;45378;-63
2022/08/18 12:46:14;;;;;;;;;10.75;9.25;;;;;;;;5076964;28;45312;-63
2022/08/18 12:48:39;;;;;;;;;10.00;9.00;;;;;;;;5076807;27;46503;-64
2022/08/18 12:51:05;;;;;;;;;8.50;8.50;;;;;;;;5075361;27;45290;-64
2022/08/18 12:53:30;;;;;;;;;11.50;10.50;;;;;;;;5076832;27;45209;-63
2022/08/18 12:55:55;;;;;;;;;11.50;10.25;;;;;;;;5075446;28;45361;-63
2022/08/18 12:58:21;;;;;;;;;8.75;8.75;;;;;;;;5076522;28;45769;-63
2022/08/18 13:00:46;;;;;;;;;7.75;7.75;;;;;;;;5075381;28;45470;-63
2022/08/18 13:03:12;;;;;;;;;7.75;7.50;;;;;;;;5076971;27;45435;-63
2022/08/18 13:05:37;;;;;;;;;9.75;9.75;;;;;;;;5075347;27;45366;-64
2022/08/18 13:08:04;;;;;;;;;11.75;10.00;;;;;;;;5076407;27;45761;-64
2022/08/18 13:10:29;;;;;;;;;10.75;10.75;;;;;;;;5076588;27;45472;-64
2022/08/18 13:12:54;;;;;;;;;8.75;7.50;;;;;;;;5076516;27;45432;-64
2022/08/18 13:15:19;;;;;;;;;7.50;6.75;;;;;;;;5076794;27;45766;-63
2022/08/18 13:17:45;;;;;;;;;8.00;8.00;;;;;;;;5076260;27;45426;-64
2022/08/18 13:20:12;;;;;;;;;11.00;11.00;;;;;;;;5076326;27;45372;-64
2022/08/18 13:22:40;;;;;;;;;6.75;6.75;;;;;;;;5075106;27;45440;-63
2022/08/18 13:25:06;;;;;;;;;11.25;9.50;;;;;;;;5076297;27;45321;-63
2022/08/18 13:27:33;;;;;;;;;8.50;8.50;;;;;;;;5087762;27;46553;-63
2022/08/18 13:29:59;;;;;;;;;9.75;9.75;;;;;;;;5096677;27;45329;-63
2022/08/18 13:32:24;;;;;;;;;9.50;9.25;;;;;;;;5096302;27;45407;-64
2022/08/18 13:34:50;;;;;;;;;5.25;4.00;;;;;;;;5096763;27;45434;-64
2022/08/18 13:37:15;;;;;;;;;8.25;8.25;;;;;;;;5096350;27;45594;-64
2022/08/18 13:39:40;;;;;;;;;9.75;9.75;;;;;;;;5096549;27;45553;-64
2022/08/18 13:42:06;;;;;;;;;9.00;9.00;;;;;;;;5095374;27;45322;-63
2022/08/18 13:44:31;;;;;;;;;6.75;6.00;;;;;;;;5096511;27;45370;-64
2022/08/18 13:46:56;;;;;;;;;8.25;8.25;;;;;;;;5096409;27;45645;-64
2022/08/18 13:49:23;;;;;;;;;9.50;7.75;;;;;;;;5096363;27;45354;-63
2022/08/18 13:51:49;;;;;;;;;8.75;8.00;;;;;;;;5096518;27;45443;-63
2022/08/18 13:54:22;;;;;;;;;8.50;8.50;;;;;;;;5096300;27;45427;-64
2022/08/18 13:56:48;;;;;;;;;7.75;7.75;;;;;;;;5095933;27;45721;-63
2022/08/18 13:59:14;;;;;;;;;4.50;3.50;;;;;;;;5096324;27;45273;-63
2022/08/18 14:01:40;;;;;;;;;9.50;8.50;;;;;;;;5096343;27;45363;-63
2022/08/18 14:04:06;;;;;;;;;6.50;6.50;;;;;;;;5096374;27;45342;-63
2022/08/18 14:06:31;;;;;;;;;7.25;7.25;;;;;;;;5095962;27;46700;-63
2022/08/18 14:08:56;;;;;;;;;8.25;7.25;;;;;;;;5095891;27;45320;-64
2022/08/18 14:11:26;;;;;;;;;6.50;6.50;;;;;;;;5096453;27;45336;-64
2022/08/18 14:13:51;;;;;;;;;9.00;9.00;;;;;;;;5096171;27;45387;-63
2022/08/18 14:16:17;;;;;;;;;5.50;5.50;;;;;;;;5095949;27;45650;-62
2022/08/18 14:18:43;;;;;;;;;9.00;9.00;;;;;;;;5094558;27;45216;-63
2022/08/18 14:26:47;;;;;;;;;7.25;7.25;;;;;;;;5094600;27;45404;-63
2022/08/18 14:29:13;;;;;;;;;10.25;9.75;;;;;;;;5095758;27;45383;-63
2022/08/18 14:31:38;;;;;;;;;8.75;8.75;;;;;;;;5095784;27;45874;-63
2022/08/18 14:34:04;;;;;;;;;8.00;8.00;;;;;;;;5095909;27;45257;-63
2022/08/18 14:36:29;;;;;;;;;9.50;9.00;;;;;;;;5095581;27;45520;-63
2022/08/18 14:38:54;;;;;;;;;7.75;7.75;;;;;;;;5094391;27;45545;-64
2022/08/18 14:41:19;;;;;;;;;11.75;11.75;;;;;;;;5095923;27;45336;-64
2022/08/18 14:43:45;;;;;;;;;10.00;10.00;;;;;;;;5095980;27;45330;-62
2022/08/18 14:46:11;;;;;;;;;8.25;7.50;;;;;;;;5098983;27;45951;-63
2022/08/18 14:48:36;;;;;;;;;8.00;8.00;;;;;;;;5097839;27;45288;-62
2022/08/18 14:51:02;;;;;;;;;7.75;7.75;;;;;;;;5099217;27;45345;-63
2022/08/18 14:53:28;;;;;;;;;8.50;8.50;;;;;;;;5099090;27;45407;-63
2022/08/18 14:55:54;;;;;;;;;9.00;9.00;;;;;;;;5098818;27;45603;-63
2022/08/18 14:58:25;;;;;;;;;12.50;10.25;;;;;;;;5098766;27;45486;-63